Terminal Aerodrome Forecast
Issued by NWS

Home | Current Version | Previous Version | Text Only | Print | Product List | Glossary On
Versions: 1 2 3 4 5 6 7 8 9 10 11 12 13
175
FTUS45 KVEF 212320
TAFDAG
TAF
KDAG 212320Z 2200/2224 VRB05KT P6SM FEW250
     FM220400 26010KT P6SM SCT250
     FM222000 27004KT P6SM SCT250=

USA.gov is the U.S. government's official web portal to all federal, state and local government web resources and services.